Time;durP1;ratioP1;P1;durP2;ratioP2;P2;SDS_P1;SDS_P2;PMS_P1;PMS_P2;Temp;Humidity;BMP_temperature;BMP_pressure;BME280_temperature;BME280_humidity;BME280_pressure;Samples;Min_cycle;Max_cycle;Signal;HPM_P1;HPM_P2
2022/11/13 00:03:19;;;;;;;5.07;2.20;;;;;;;;;;10180244;29;20048;-82
2022/11/13 00:08:42;;;;;;;2.67;2.10;;;;;;;;;;10186101;29;20048;-82
2022/11/13 00:14:04;;;;;;;1.73;1.63;;;;;;;;;;10177699;29;20389;-82
2022/11/13 00:19:28;;;;;;;3.53;1.70;;;;;;;;;;10167934;29;20048;-84
2022/11/13 00:24:50;;;;;;;2.13;1.33;;;;;;;;;;10178731;29;20715;-81
2022/11/13 00:30:13;;;;;;;1.60;1.50;;;;;;;;;;10175780;29;20044;-84
2022/11/13 00:35:40;;;;;;;1.75;1.55;;;;;;;;;;10180110;29;20063;-82
2022/11/13 00:41:02;;;;;;;1.95;1.60;;;;;;;;;;10176601;29;20083;-82
2022/11/13 00:46:25;;;;;;;2.35;1.92;;;;;;;;;;10201399;29;20549;-82
2022/11/13 00:51:48;;;;;;;2.00;1.80;;;;;;;;;;10167042;29;20700;-82
2022/11/13 00:57:10;;;;;;;2.05;1.85;;;;;;;;;;10185017;29;20044;-84
2022/11/13 01:02:32;;;;;;;2.63;2.22;;;;;;;;;;10168702;29;20051;-84
2022/11/13 01:07:56;;;;;;;2.55;1.95;;;;;;;;;;10172053;29;20044;-83
2022/11/13 01:13:18;;;;;;;2.00;1.75;;;;;;;;;;10177708;29;20047;-85
2022/11/13 01:18:41;;;;;;;2.42;2.20;;;;;;;;;;10170173;29;20191;-82
2022/11/13 01:24:05;;;;;;;2.15;1.95;;;;;;;;;;10177284;29;20043;-82
2022/11/13 01:29:27;;;;;;;2.78;2.17;;;;;;;;;;10154239;29;20064;-83
2022/11/13 01:34:49;;;;;;;3.92;2.25;;;;;;;;;;10178315;29;20130;-83
2022/11/13 01:40:14;;;;;;;3.85;2.00;;;;;;;;;;10167903;29;20056;-85
2022/11/13 01:46:05;;;;;;;2.70;2.15;;;;;;;;;;10163331;29;20464;-84
2022/11/13 01:51:30;;;;;;;2.40;1.90;;;;;;;;;;10166847;29;20063;-85
2022/11/13 01:56:55;;;;;;;2.47;1.88;;;;;;;;;;10173155;29;20056;-85
2022/11/13 02:02:17;;;;;;;3.33;2.40;;;;;;;;;;10185679;29;20059;-84
2022/11/13 02:07:39;;;;;;;4.85;2.72;;;;;;;;;;10192824;29;20048;-84
2022/11/13 02:13:03;;;;;;;4.18;2.80;;;;;;;;;;10190411;29;20703;-84
2022/11/13 02:18:27;;;;;;;3.30;2.70;;;;;;;;;;10181932;29;20047;-85
2022/11/13 02:23:59;;;;;;;4.60;2.50;;;;;;;;;;10170308;29;20123;-85
2022/11/13 02:29:23;;;;;;;3.83;2.65;;;;;;;;;;10171340;29;20051;-84
2022/11/13 02:34:45;;;;;;;3.88;2.28;;;;;;;;;;10175667;29;20044;-84
2022/11/13 02:40:08;;;;;;;3.65;2.65;;;;;;;;;;10178742;29;20645;-84
2022/11/13 02:45:31;;;;;;;3.10;2.35;;;;;;;;;;10237920;23;20092;-83
2022/11/13 02:50:53;;;;;;;2.78;2.30;;;;;;;;;;10267876;28;20484;-83
2022/11/13 02:56:16;;;;;;;3.97;2.83;;;;;;;;;;10544483;23;20054;-85
2022/11/13 03:01:39;;;;;;;3.13;2.28;;;;;;;;;;10284570;23;20043;-87
2022/11/13 03:07:02;;;;;;;3.55;2.70;;;;;;;;;;10239327;28;20750;-88
2022/11/13 03:12:24;;;;;;;3.45;2.15;;;;;;;;;;10215204;29;20056;-87
2022/11/13 03:17:48;;;;;;;2.83;2.13;;;;;;;;;;10184001;29;20048;-87
2022/11/13 03:23:10;;;;;;;3.50;2.25;;;;;;;;;;10200330;29;20118;-88
2022/11/13 03:28:33;;;;;;;4.88;2.55;;;;;;;;;;10204314;29;20044;-86
2022/11/13 03:33:56;;;;;;;3.28;2.47;;;;;;;;;;10205407;29;20083;-87
2022/11/13 03:39:19;;;;;;;2.33;2.13;;;;;;;;;;10202144;29;20094;-87
2022/11/13 03:44:40;;;;;;;3.40;2.67;;;;;;;;;;10197137;29;20048;-87
2022/11/13 03:50:05;;;;;;;2.50;2.10;;;;;;;;;;10197032;29;20051;-86
2022/11/13 03:55:27;;;;;;;2.47;2.28;;;;;;;;;;10203759;29;20055;-88
2022/11/13 04:00:50;;;;;;;2.92;2.20;;;;;;;;;;10196816;29;20531;-87
2022/11/13 04:06:14;;;;;;;2.92;2.58;;;;;;;;;;10196736;29;20679;-86
2022/11/13 04:11:36;;;;;;;3.00;2.28;;;;;;;;;;10187390;29;20414;-87
2022/11/13 04:16:58;;;;;;;3.10;2.50;;;;;;;;;;10197144;29;20056;-87
2022/11/13 04:22:22;;;;;;;3.00;1.98;;;;;;;;;;10188301;29;20045;-86
2022/11/13 04:27:44;;;;;;;2.40;2.00;;;;;;;;;;10195778;29;20511;-86
2022/11/13 04:33:06;;;;;;;2.25;1.98;;;;;;;;;;10197299;29;20522;-86
2022/11/13 04:38:29;;;;;;;2.45;1.92;;;;;;;;;;10197628;29;20044;-85
2022/11/13 04:43:52;;;;;;;3.03;2.28;;;;;;;;;;10180985;29;20052;-87
2022/11/13 04:49:14;;;;;;;3.00;2.22;;;;;;;;;;10195635;29;20098;-87
2022/11/13 04:54:38;;;;;;;2.15;1.95;;;;;;;;;;10178612;29;20099;-87
2022/11/13 05:00:00;;;;;;;3.05;2.20;;;;;;;;;;10202563;29;20091;-87
2022/11/13 05:05:22;;;;;;;2.50;1.95;;;;;;;;;;10195010;29;20048;-87
2022/11/13 05:10:45;;;;;;;2.40;1.95;;;;;;;;;;10194566;29;20055;-87
2022/11/13 05:16:11;;;;;;;3.72;2.65;;;;;;;;;;10189853;29;20394;-86
2022/11/13 05:21:33;;;;;;;4.10;2.28;;;;;;;;;;10203283;29;20139;-87
2022/11/13 05:26:56;;;;;;;2.97;2.08;;;;;;;;;;10195722;29;20059;-87
2022/11/13 05:32:18;;;;;;;3.33;2.42;;;;;;;;;;10193747;29;20414;-87
2022/11/13 05:37:40;;;;;;;2.60;2.20;;;;;;;;;;10207915;29;20051;-87
2022/11/13 05:43:04;;;;;;;2.70;2.10;;;;;;;;;;10186850;29;20045;-87
2022/11/13 05:48:29;;;;;;;2.72;1.75;;;;;;;;;;10202246;29;20048;-87
2022/11/13 05:53:51;;;;;;;3.07;2.50;;;;;;;;;;10201135;29;20557;-87
2022/11/13 05:59:15;;;;;;;3.33;2.83;;;;;;;;;;10198817;29;20044;-86
2022/11/13 06:04:37;;;;;;;3.42;2.72;;;;;;;;;;10186546;29;20078;-88
2022/11/13 06:09:59;;;;;;;3.88;2.65;;;;;;;;;;10202137;29;20052;-87
2022/11/13 06:15:23;;;;;;;2.88;1.98;;;;;;;;;;10194710;29;20044;-86
2022/11/13 06:20:45;;;;;;;3.08;1.92;;;;;;;;;;10209442;29;20095;-86
2022/11/13 06:26:09;;;;;;;2.15;1.83;;;;;;;;;;10202514;29;20047;-86
2022/11/13 06:31:34;;;;;;;1.88;1.52;;;;;;;;;;10202295;29;20064;-87
2022/11/13 06:36:56;;;;;;;3.03;2.10;;;;;;;;;;10185956;29;20060;-87
2022/11/13 06:42:18;;;;;;;2.80;2.17;;;;;;;;;;10184824;29;20515;-87
2022/11/13 06:47:41;;;;;;;2.47;2.20;;;;;;;;;;10192190;29;20410;-86
2022/11/13 06:53:03;;;;;;;3.28;2.10;;;;;;;;;;10186212;29;20052;-87
2022/11/13 06:58:26;;;;;;;2.28;1.88;;;;;;;;;;10208651;29;20044;-86
2022/11/13 07:03:49;;;;;;;2.67;2.00;;;;;;;;;;10200515;29;20057;-86
2022/11/13 07:09:11;;;;;;;3.10;2.30;;;;;;;;;;10195124;29;20039;-87
2022/11/13 07:14:34;;;;;;;3.38;2.60;;;;;;;;;;10202109;29;20127;-86
2022/11/13 07:19:57;;;;;;;4.80;3.58;;;;;;;;;;10200795;29;20047;-87
2022/11/13 07:25:19;;;;;;;4.10;3.15;;;;;;;;;;10200178;29;20051;-87
2022/11/13 07:30:42;;;;;;;3.80;2.72;;;;;;;;;;10184828;29;20453;-87
2022/11/13 07:36:07;;;;;;;2.90;2.35;;;;;;;;;;10192822;29;20060;-86
2022/11/13 07:41:29;;;;;;;3.83;2.83;;;;;;;;;;10194378;29;20052;-87
2022/11/13 07:46:51;;;;;;;4.65;3.40;;;;;;;;;;10197979;29;20047;-86
2022/11/13 07:52:17;;;;;;;5.55;3.38;;;;;;;;;;10190645;29;20048;-87
2022/11/13 07:57:42;;;;;;;5.35;3.50;;;;;;;;;;10188485;29;20040;-87
2022/11/13 08:03:17;;;;;;;6.05;4.43;;;;;;;;;;10191273;29;20044;-86
2022/11/13 08:08:47;;;;;;;7.75;5.15;;;;;;;;;;10205118;29;20526;-86
2022/11/13 08:14:10;;;;;;;6.57;4.07;;;;;;;;;;10202889;29;20056;-86
2022/11/13 08:19:38;;;;;;;4.55;3.60;;;;;;;;;;10175678;29;20243;-87
2022/11/13 08:25:02;;;;;;;3.28;2.90;;;;;;;;;;10181748;29;20427;-87
2022/11/13 08:30:26;;;;;;;3.45;2.53;;;;;;;;;;10199977;29;20048;-86
2022/11/13 08:35:55;;;;;;;2.65;1.98;;;;;;;;;;10188223;29;20052;-86
2022/11/13 08:41:18;;;;;;;4.07;2.95;;;;;;;;;;10184494;29;20048;-86
2022/11/13 08:46:40;;;;;;;4.32;3.10;;;;;;;;;;10189455;29;20056;-87
2022/11/13 08:52:02;;;;;;;4.60;3.13;;;;;;;;;;10197323;29;20063;-86
2022/11/13 08:57:25;;;;;;;5.57;3.55;;;;;;;;;;10203978;29;20040;-87
2022/11/13 09:02:47;;;;;;;6.70;4.03;;;;;;;;;;10183156;29;20257;-88
2022/11/13 09:08:09;;;;;;;5.20;2.83;;;;;;;;;;10196565;29;20048;-87
2022/11/13 09:13:33;;;;;;;4.18;2.72;;;;;;;;;;10184774;29;20067;-87
2022/11/13 09:18:57;;;;;;;3.20;2.35;;;;;;;;;;10178376;29;20040;-87
2022/11/13 09:24:21;;;;;;;2.50;2.00;;;;;;;;;;10186797;29;20052;-86
2022/11/13 09:29:44;;;;;;;2.42;2.08;;;;;;;;;;10191556;29;20134;-87
2022/11/13 09:35:07;;;;;;;2.20;2.00;;;;;;;;;;10205336;29;20061;-87
2022/11/13 09:40:34;;;;;;;2.45;2.20;;;;;;;;;;10197999;29;20150;-88
2022/11/13 09:46:02;;;;;;;2.22;1.83;;;;;;;;;;10199920;29;20051;-87
2022/11/13 09:51:28;;;;;;;2.15;1.90;;;;;;;;;;10193923;29;20470;-87
2022/11/13 09:56:56;;;;;;;2.30;1.42;;;;;;;;;;10207988;29;20413;-88
2022/11/13 10:02:25;;;;;;;1.55;1.45;;;;;;;;;;10182679;29;20051;-86
2022/11/13 10:07:55;;;;;;;1.80;1.60;;;;;;;;;;10206413;29;20044;-87
2022/11/13 10:13:25;;;;;;;2.05;1.85;;;;;;;;;;10198147;29;20039;-86
2022/11/13 10:18:50;;;;;;;1.83;1.70;;;;;;;;;;10186435;29;20047;-87
2022/11/13 10:24:17;;;;;;;1.75;1.50;;;;;;;;;;10182091;29;20075;-86
2022/11/13 10:29:40;;;;;;;1.95;1.75;;;;;;;;;;10211564;29;20043;-84
2022/11/13 10:35:25;;;;;;;3.05;1.90;;;;;;;;;;10209883;29;20056;-87
2022/11/13 10:40:47;;;;;;;3.67;2.55;;;;;;;;;;10197424;29;20086;-87
2022/11/13 10:46:20;;;;;;;2.40;1.67;;;;;;;;;;10213749;29;20051;-87
2022/11/13 10:51:43;;;;;;;3.45;2.60;;;;;;;;;;10183486;29;20299;-85
2022/11/13 10:57:25;;;;;;;2.10;1.90;;;;;;;;;;10206874;29;20557;-84
2022/11/13 11:02:49;;;;;;;2.45;1.83;;;;;;;;;;10204878;29;20040;-85
2022/11/13 11:08:15;;;;;;;1.65;1.55;;;;;;;;;;10214000;29;20044;-85
2022/11/13 11:13:37;;;;;;;1.33;1.23;;;;;;;;;;10212913;29;20510;-86
2022/11/13 11:19:01;;;;;;;1.15;1.02;;;;;;;;;;10212998;29;20279;-87
2022/11/13 11:24:29;;;;;;;1.20;1.10;;;;;;;;;;10212778;29;20063;-83
2022/11/13 11:30:01;;;;;;;2.28;2.03;;;;;;;;;;10212021;29;20043;-86
2022/11/13 11:35:27;;;;;;;2.50;1.98;;;;;;;;;;10180453;29;20122;-88
2022/11/13 11:40:55;;;;;;;3.28;2.55;;;;;;;;;;10203042;29;20056;-87
2022/11/13 11:46:22;;;;;;;2.60;2.30;;;;;;;;;;10207842;29;20048;-88
2022/11/13 11:51:57;;;;;;;3.38;2.60;;;;;;;;;;10209314;29;20051;-88
2022/11/13 11:57:39;;;;;;;3.87;3.00;;;;;;;;;;10205854;29;20056;-88
2022/11/13 12:03:49;;;;;;;2.30;1.92;;;;;;;;;;10203096;29;20044;-85
2022/11/13 12:09:18;;;;;;;5.53;3.55;;;;;;;;;;10151689;29;20044;-87
2022/11/13 12:14:53;;;;;;;2.55;1.80;;;;;;;;;;10192830;29;20071;-85
2022/11/13 12:20:25;;;;;;;2.10;1.70;;;;;;;;;;10210853;29;20131;-87
2022/11/13 12:25:51;;;;;;;2.83;2.20;;;;;;;;;;10210808;29;20130;-88
2022/11/13 12:31:38;;;;;;;3.05;2.15;;;;;;;;;;10198884;29;20044;-84
2022/11/13 12:37:03;;;;;;;2.50;2.30;;;;;;;;;;10208421;29;20881;-88
2022/11/13 12:42:33;;;;;;;2.55;1.90;;;;;;;;;;10188509;29;20052;-84
2022/11/13 12:48:07;;;;;;;3.90;2.58;;;;;;;;;;10177217;29;20620;-84
2022/11/13 12:53:31;;;;;;;3.50;2.50;;;;;;;;;;10203138;29;20040;-84
2022/11/13 12:58:56;;;;;;;3.20;2.45;;;;;;;;;;10192266;29;20039;-85
2022/11/13 13:04:49;;;;;;;1.90;1.52;;;;;;;;;;10197614;29;20048;-85
2022/11/13 13:10:17;;;;;;;2.72;1.42;;;;;;;;;;10176567;29;20587;-86
2022/11/13 13:15:40;;;;;;;1.38;1.20;;;;;;;;;;10169909;29;20048;-84
2022/11/13 13:21:07;;;;;;;1.75;1.38;;;;;;;;;;10192816;29;20048;-85
2022/11/13 13:26:29;;;;;;;2.15;1.30;;;;;;;;;;10169302;29;20135;-85
2022/11/13 13:31:57;;;;;;;2.45;1.38;;;;;;;;;;10200364;29;20639;-84
2022/11/13 13:37:34;;;;;;;2.10;1.30;;;;;;;;;;10208408;29;20048;-86
2022/11/13 13:43:12;;;;;;;2.70;1.90;;;;;;;;;;10201525;29;20048;-86
2022/11/13 13:48:39;;;;;;;2.03;1.83;;;;;;;;;;10208096;29;20040;-84
2022/11/13 13:54:06;;;;;;;1.80;1.40;;;;;;;;;;10185810;29;20044;-85
2022/11/13 13:59:31;;;;;;;2.30;1.50;;;;;;;;;;10210648;29;20495;-85
2022/11/13 14:04:54;;;;;;;1.67;1.30;;;;;;;;;;10199963;29;20043;-85
2022/11/13 14:10:20;;;;;;;2.20;1.63;;;;;;;;;;10215757;29;20047;-85
2022/11/13 14:15:42;;;;;;;2.75;1.60;;;;;;;;;;10215521;29;20083;-85
2022/11/13 14:21:10;;;;;;;1.70;1.42;;;;;;;;;;10207364;29;20071;-84
2022/11/13 14:26:33;;;;;;;1.63;1.33;;;;;;;;;;10201056;29;20056;-85
2022/11/13 14:32:02;;;;;;;1.88;1.30;;;;;;;;;;10206509;29;20055;-84
2022/11/13 14:37:26;;;;;;;1.88;1.67;;;;;;;;;;10189736;29;20411;-85
2022/11/13 14:42:52;;;;;;;1.63;1.20;;;;;;;;;;10195986;29;20068;-85
2022/11/13 14:48:18;;;;;;;;;;;;;;;;;;10201162;29;20048;-84
2022/11/13 14:53:42;;;;;;;1.40;0.77;;;;;;;;;;10196284;29;20006;-87
2022/11/13 14:59:28;;;;;;;1.70;0.93;;;;;;;;;;10196227;29;20051;-84
2022/11/13 15:04:50;;;;;;;1.50;0.93;;;;;;;;;;10197387;29;20051;-84
2022/11/13 15:10:15;;;;;;;0.90;0.70;;;;;;;;;;10211892;29;20043;-85
2022/11/13 15:15:39;;;;;;;0.68;0.60;;;;;;;;;;10200464;29;20060;-83
2022/11/13 15:21:02;;;;;;;1.15;0.85;;;;;;;;;;10199985;29;20087;-83
2022/11/13 15:26:24;;;;;;;3.45;1.33;;;;;;;;;;10206455;29;20461;-84
2022/11/13 15:31:48;;;;;;;1.70;1.20;;;;;;;;;;10212157;28;20199;-83
2022/11/13 15:37:14;;;;;;;3.75;1.70;;;;;;;;;;10215843;29;20047;-84
2022/11/13 15:42:37;;;;;;;3.03;1.27;;;;;;;;;;10214208;29;20060;-83
2022/11/13 15:48:00;;;;;;;4.80;2.83;;;;;;;;;;10201491;29;20126;-84
2022/11/13 15:53:22;;;;;;;3.63;1.98;;;;;;;;;;10202409;29;20488;-84
2022/11/13 15:58:44;;;;;;;3.28;2.25;;;;;;;;;;10207875;29;20039;-83
2022/11/13 16:04:10;;;;;;;5.03;3.00;;;;;;;;;;10208164;29;20414;-84
2022/11/13 16:09:33;;;;;;;3.33;2.00;;;;;;;;;;10187714;29;20055;-84
2022/11/13 16:14:54;;;;;;;4.93;2.60;;;;;;;;;;10199071;29;20051;-83
2022/11/13 16:20:19;;;;;;;5.72;3.65;;;;;;;;;;10207084;29;20048;-83
2022/11/13 16:25:41;;;;;;;6.25;3.47;;;;;;;;;;10181752;29;20048;-82
2022/11/13 16:31:03;;;;;;;7.05;4.43;;;;;;;;;;10198506;29;20056;-85
2022/11/13 16:36:26;;;;;;;9.13;5.70;;;;;;;;;;10211438;29;20051;-84
2022/11/13 16:41:48;;;;;;;13.30;7.13;;;;;;;;;;10211322;29;20052;-83
2022/11/13 16:47:21;;;;;;;14.05;7.45;;;;;;;;;;10205278;29;20043;-83
2022/11/13 16:52:44;;;;;;;10.95;6.15;;;;;;;;;;10209898;29;20138;-82
2022/11/13 16:58:06;;;;;;;12.52;7.55;;;;;;;;;;10193098;29;20039;-83
2022/11/13 17:03:28;;;;;;;10.23;6.03;;;;;;;;;;10195716;29;20082;-84
2022/11/13 17:08:52;;;;;;;8.73;5.60;;;;;;;;;;10208546;29;20043;-86
2022/11/13 17:14:14;;;;;;;10.93;5.70;;;;;;;;;;10200136;29;20044;-86
2022/11/13 17:19:39;;;;;;;9.23;5.43;;;;;;;;;;10204851;29;20048;-86
2022/11/13 17:25:03;;;;;;;9.13;5.95;;;;;;;;;;10193310;29;20047;-86
2022/11/13 17:30:25;;;;;;;9.27;6.07;;;;;;;;;;10206922;29;20059;-86
2022/11/13 17:35:53;;;;;;;7.57;4.60;;;;;;;;;;10205194;29;20056;-86
2022/11/13 17:41:17;;;;;;;6.53;4.68;;;;;;;;;;10180438;29;20051;-87
2022/11/13 17:46:40;;;;;;;9.93;5.18;;;;;;;;;;10207184;29;20231;-86
2022/11/13 17:52:02;;;;;;;8.07;4.63;;;;;;;;;;10195147;29;20067;-86
2022/11/13 17:57:25;;;;;;;8.35;4.78;;;;;;;;;;10208649;29;20047;-87
2022/11/13 18:02:47;;;;;;;8.15;4.30;;;;;;;;;;10209971;29;20126;-84
2022/11/13 18:08:11;;;;;;;11.63;6.70;;;;;;;;;;10202520;29;20095;-84
2022/11/13 18:13:35;;;;;;;9.48;5.68;;;;;;;;;;10194770;29;20039;-86
2022/11/13 18:18:59;;;;;;;12.48;6.88;;;;;;;;;;10199277;29;20540;-84
2022/11/13 18:24:21;;;;;;;10.23;5.88;;;;;;;;;;10197695;29;20044;-84
2022/11/13 18:29:44;;;;;;;9.98;5.63;;;;;;;;;;10190441;29;20510;-85
2022/11/13 18:35:07;;;;;;;6.93;4.95;;;;;;;;;;10205735;29;20040;-85
2022/11/13 18:40:29;;;;;;;10.02;4.55;;;;;;;;;;10202018;29;20052;-84
2022/11/13 18:45:58;;;;;;;7.97;4.82;;;;;;;;;;10199424;29;20056;-86
2022/11/13 18:51:22;;;;;;;10.77;6.63;;;;;;;;;;10191980;29;20064;-85
2022/11/13 18:56:44;;;;;;;9.07;5.53;;;;;;;;;;10201625;29;20548;-86
2022/11/13 19:02:10;;;;;;;11.43;6.22;;;;;;;;;;10201709;29;20542;-86
2022/11/13 19:07:32;;;;;;;10.15;5.70;;;;;;;;;;10199461;29;20450;-85
2022/11/13 19:12:54;;;;;;;10.95;6.90;;;;;;;;;;10204484;29;20058;-86
2022/11/13 19:18:18;;;;;;;12.07;7.35;;;;;;;;;;10212978;29;20043;-86
2022/11/13 19:23:40;;;;;;;10.38;6.68;;;;;;;;;;10190260;29;20532;-85
2022/11/13 19:29:02;;;;;;;8.73;5.32;;;;;;;;;;10182202;29;20427;-86
2022/11/13 19:34:26;;;;;;;8.18;4.85;;;;;;;;;;10196571;29;20052;-86
2022/11/13 19:39:48;;;;;;;8.45;5.38;;;;;;;;;;10187590;29;20040;-86
2022/11/13 19:45:11;;;;;;;12.90;7.05;;;;;;;;;;10203656;29;20052;-85
2022/11/13 19:50:34;;;;;;;19.10;9.25;;;;;;;;;;10203785;29;20076;-85
2022/11/13 19:55:57;;;;;;;19.00;9.50;;;;;;;;;;10197002;29;20051;-85
2022/11/13 20:01:21;;;;;;;20.35;9.70;;;;;;;;;;10203632;29;20051;-86
2022/11/13 20:06:44;;;;;;;11.55;6.82;;;;;;;;;;10211216;29;20514;-85
2022/11/13 20:12:06;;;;;;;20.25;10.88;;;;;;;;;;10179121;29;20477;-86
2022/11/13 20:17:28;;;;;;;18.35;9.20;;;;;;;;;;10199229;29;20048;-85
2022/11/13 20:22:52;;;;;;;18.73;10.45;;;;;;;;;;10202291;29;20043;-86
2022/11/13 20:28:14;;;;;;;18.80;8.80;;;;;;;;;;10194243;29;20051;-85
2022/11/13 20:33:36;;;;;;;17.67;8.68;;;;;;;;;;10193086;29;20140;-85
2022/11/13 20:39:00;;;;;;;12.15;7.13;;;;;;;;;;10202020;29;20040;-86
2022/11/13 20:44:24;;;;;;;11.80;6.57;;;;;;;;;;10198861;29;20123;-86
2022/11/13 20:49:46;;;;;;;13.60;7.60;;;;;;;;;;10186310;29;20045;-86
2022/11/13 20:55:10;;;;;;;11.32;5.88;;;;;;;;;;10196186;29;20052;-86
2022/11/13 21:00:32;;;;;;;11.68;7.00;;;;;;;;;;10185719;29;20055;-85
2022/11/13 21:05:54;;;;;;;15.02;7.07;;;;;;;;;;10198526;29;20052;-86
2022/11/13 21:11:20;;;;;;;12.25;5.88;;;;;;;;;;10200599;29;20459;-86
2022/11/13 21:16:42;;;;;;;8.23;4.28;;;;;;;;;;10208597;29;20506;-85
2022/11/13 21:22:05;;;;;;;11.48;5.30;;;;;;;;;;10183018;29;20084;-85
2022/11/13 21:27:28;;;;;;;12.55;5.63;;;;;;;;;;10194698;29;20052;-86
2022/11/13 21:32:50;;;;;;;19.75;8.85;;;;;;;;;;10191917;29;20043;-87
2022/11/13 21:38:12;;;;;;;19.75;10.02;;;;;;;;;;10203176;29;20147;-86
2022/11/13 21:43:36;;;;;;;16.73;8.85;;;;;;;;;;10303425;23;20138;-83
2022/11/13 21:49:01;;;;;;;14.70;7.18;;;;;;;;;;10225679;28;20055;-83
2022/11/13 21:54:23;;;;;;;18.63;9.30;;;;;;;;;;10224317;28;20047;-84
2022/11/13 21:59:46;;;;;;;19.20;9.18;;;;;;;;;;10201557;28;20067;-83
2022/11/13 22:05:09;;;;;;;17.30;8.27;;;;;;;;;;10194804;28;20052;-84
2022/11/13 22:10:30;;;;;;;16.52;8.27;;;;;;;;;;10209106;28;20527;-83
2022/11/13 22:15:54;;;;;;;13.80;7.93;;;;;;;;;;10228928;28;20048;-83
2022/11/13 22:21:16;;;;;;;12.82;7.72;;;;;;;;;;10195166;28;20512;-83
2022/11/13 22:26:41;;;;;;;13.93;7.68;;;;;;;;;;10206766;28;20093;-83
2022/11/13 22:32:05;;;;;;;10.77;6.03;;;;;;;;;;10213218;28;20054;-83
2022/11/13 22:37:27;;;;;;;10.77;6.10;;;;;;;;;;10193774;28;20047;-83
2022/11/13 22:42:49;;;;;;;8.98;5.50;;;;;;;;;;10197979;28;20709;-83
2022/11/13 22:48:13;;;;;;;11.65;6.93;;;;;;;;;;10199713;28;20051;-84
2022/11/13 22:53:35;;;;;;;9.60;6.00;;;;;;;;;;10206723;28;20036;-83
2022/11/13 22:58:58;;;;;;;10.32;6.10;;;;;;;;;;10196748;28;20416;-84
2022/11/13 23:04:21;;;;;;;7.45;5.35;;;;;;;;;;10210236;28;20532;-83
2022/11/13 23:09:43;;;;;;;8.68;5.63;;;;;;;;;;10197940;28;20051;-84
2022/11/13 23:15:07;;;;;;;6.90;4.50;;;;;;;;;;10207529;28;20114;-84
2022/11/13 23:20:30;;;;;;;6.93;4.57;;;;;;;;;;10196210;28;20083;-84
2022/11/13 23:25:52;;;;;;;9.55;5.20;;;;;;;;;;10194296;28;20056;-82
2022/11/13 23:31:15;;;;;;;8.48;5.03;;;;;;;;;;10183801;28;20075;-84
2022/11/13 23:36:38;;;;;;;7.55;4.70;;;;;;;;;;10190248;28;20051;-83
2022/11/13 23:42:00;;;;;;;8.05;5.20;;;;;;;;;;10199483;28;20048;-84
2022/11/13 23:47:22;;;;;;;8.65;5.07;;;;;;;;;;10189422;28;20051;-82
2022/11/13 23:52:46;;;;;;;8.88;5.55;;;;;;;;;;10200771;28;20052;-84
2022/11/13 23:58:11;;;;;;;7.70;5.53;;;;;;;;;;10190838;28;20056;-84
